KDUA/DUA METAR and TAF weather

Enter ICAO airport designator
Station Type Date Time Source
KDUA METAR 2021/09/23 17:55 UTC NOAA

KDUA 231755Z AUTO 27005KT 10SM CLR 29/M01 A3015 RMK AO2


Station Type Date Time Source
KDUA Decoded METAR 2021/09/23 17:55 UTC NOAA

Durant, Eaker Field Airport, OK, United States (KDUA) 33-56-32N 096-23-40W
Sep 23, 2021 - 01:55 PM EDT / 2021.09.23 1755 UTC
Wind: from the W (270 degrees) at 6 MPH (5 KT):0
Visibility: 10 mile(s):0
Sky conditions: clear
Temperature: 84 F (29 C)
Dew Point: 30 F (-1 C)
Relative Humidity: 14%
Pressure (altimeter): 30.15 in. Hg (1020 hPa)
ob: KDUA 231755Z AUTO 27005KT 10SM CLR 29/M01 A3015 RMK AO2
cycle: 18

Station Type Date Time Source
KDUA TAF UTC NOAA

Error!

Example: see airport list